Details for Austrian at LOWW




Go Back


Latest METAR
Local Time

LOWW 240750Z VRB03KT CAVOK 22/16 Q1019 TEMPO 07007KT

24/05/2018, 10:07:15

Description
Results
Austrian Logo
Number of Pilots based at LOWW
0 Pilots Based here
Number of Austrian Flights Departed from LOWW
6 Flights Departed
Number of Austrian Flights Arrived at LOWW
6 Flights Arrived
Number of Austrian Schedules Departing from LOWW
244 Schedules
Number of Austrian Schedules Arriving at LOWW
249 Schedules
Number of Austrian Schedules Departing from LOWW availible today
194 Schedules Today
Number of Austrian Schedules Arriving at LOWW availible today
193 Schedules Today
Average Landing Rate at LOWW
-214 fpm
Austrian Average Landing Rate at LOWW
-345 fpm
Total Fuel Purchased at LOWW by Austrian
20,633.01 kgs / 45,487.53 lbs

Pilots Based at LOWW


Pilot ID
Pilot Name
Pilot Rank
No. of Flights
No. of Flying Hours
There are no pilots assigned to this hub!   Will you be the first?
Content